createdAt,value
2017-11-04T00:00:32.777Z,9.62
2017-11-04T00:01:32.454Z,9.46
2017-11-04T00:02:33.111Z,9.54
2017-11-04T00:03:32.808Z,9.54
2017-11-04T00:04:32.828Z,9.56
2017-11-04T00:05:32.873Z,9.58
2017-11-04T00:06:32.861Z,9.47
2017-11-04T00:07:32.879Z,9.58
2017-11-04T00:08:33.215Z,9.64
2017-11-04T00:09:32.911Z,9.51
2017-11-04T00:10:32.938Z,9.51
2017-11-04T00:11:33.315Z,9.59
2017-11-04T00:12:32.972Z,9.54
2017-11-04T00:13:32.662Z,9.59
2017-11-04T00:14:32.676Z,9.5
2017-11-04T00:15:33.341Z,9.5
2017-11-04T00:16:32.713Z,9.54
2017-11-04T00:17:33.056Z,9.55
2017-11-04T00:18:32.745Z,9.55
2017-11-04T00:19:33.093Z,9.62
2017-11-04T00:20:33.095Z,9.54
2017-11-04T00:21:33.115Z,9.54
2017-11-04T00:22:33.152Z,9.54
2017-11-04T00:23:33.479Z,9.51
2017-11-04T00:24:32.856Z,9.51
2017-11-04T00:25:33.194Z,9.55
2017-11-04T00:26:33.523Z,9.55
2017-11-04T00:27:33.542Z,9.59
2017-11-04T00:28:32.937Z,9.47
2017-11-04T00:29:32.983Z,9.43
2017-11-04T00:30:33.592Z,9.5
2017-11-04T00:31:33.290Z,9.48
2017-11-04T00:32:32.985Z,9.41
2017-11-04T00:33:33.000Z,9.43
2017-11-04T00:34:33.343Z,9.43
2017-11-04T00:35:33.355Z,9.44
2017-11-04T00:36:33.052Z,9.39
2017-11-04T00:37:33.071Z,9.36
2017-11-04T00:38:33.410Z,9.39
2017-11-04T00:39:33.104Z,9.37
2017-11-04T00:40:33.445Z,9.31
2017-11-04T00:41:33.463Z,9.37
2017-11-04T00:42:33.814Z,9.4
2017-11-04T00:43:33.816Z,9.39
2017-11-04T00:44:33.241Z,9.41
2017-11-04T00:45:33.526Z,9.37
2017-11-04T00:46:33.860Z,9.41
2017-11-04T00:47:33.556Z,9.39
2017-11-04T00:48:33.570Z,9.37
2017-11-04T00:49:33.914Z,9.34
2017-11-04T00:50:34.289Z,9.36
2017-11-04T00:51:33.948Z,9.34
2017-11-04T00:52:33.959Z,9.34
2017-11-04T00:53:33.665Z,9.26
2017-11-04T00:54:33.992Z,9.26
2017-11-04T00:55:34.017Z,9.29
2017-11-04T00:56:33.722Z,9.25
2017-11-04T00:57:33.727Z,9.16
2017-11-04T00:58:34.070Z,9.02
2017-11-04T00:59:33.761Z,9.1
2017-11-04T01:00:33.510Z,9.06
2017-11-04T01:01:34.119Z,9.19
2017-11-04T01:02:34.149Z,9.19
2017-11-04T01:03:33.833Z,9.18
2017-11-04T01:04:33.856Z,9
2017-11-04T01:05:33.872Z,9.02
2017-11-04T01:06:34.205Z,8.89
2017-11-04T01:07:33.577Z,8.95
2017-11-04T01:08:33.922Z,8.97
2017-11-04T01:09:33.935Z,8.84
2017-11-04T01:10:33.958Z,8.82
2017-11-04T01:11:33.971Z,8.85
2017-11-04T01:12:33.985Z,8.82
2017-11-04T01:13:33.679Z,8.78
2017-11-04T01:14:34.367Z,8.81
2017-11-04T01:15:34.037Z,8.92
2017-11-04T01:16:34.387Z,8.97
2017-11-04T01:17:34.401Z,8.94
2017-11-04T01:18:34.137Z,8.94
2017-11-04T01:19:34.424Z,8.97
2017-11-04T01:20:34.442Z,8.76
2017-11-04T01:21:34.461Z,8.84
2017-11-04T01:22:33.831Z,8.88
2017-11-04T01:23:34.491Z,8.74
2017-11-04T01:24:34.186Z,8.82
2017-11-04T01:25:34.209Z,8.82
2017-11-04T01:26:34.220Z,8.73
2017-11-04T01:27:34.241Z,8.66
2017-11-04T01:28:34.256Z,8.69
2017-11-04T01:29:34.272Z,8.73
2017-11-04T01:30:33.967Z,8.73
2017-11-04T01:31:34.625Z,8.64
2017-11-04T01:32:34.330Z,8.67
2017-11-04T01:33:34.711Z,8.81
2017-11-04T01:34:34.674Z,8.78
2017-11-04T01:35:34.373Z,8.66
2017-11-04T01:36:34.390Z,8.78
2017-11-04T01:37:34.727Z,8.66
2017-11-04T01:38:34.422Z,8.71
2017-11-04T01:39:34.787Z,8.74
2017-11-04T01:40:34.780Z,8.71
2017-11-04T01:41:34.471Z,8.67
2017-11-04T01:42:34.488Z,8.58
2017-11-04T01:43:34.829Z,8.67
2017-11-04T01:44:34.844Z,8.7
2017-11-04T01:45:34.218Z,8.67
2017-11-04T01:46:34.555Z,8.6
2017-11-04T01:47:34.891Z,8.6
2017-11-04T01:48:34.589Z,8.6
2017-11-04T01:49:34.604Z,8.66
2017-11-04T01:50:34.619Z,8.61
2017-11-04T01:51:34.635Z,8.46
2017-11-04T01:52:34.979Z,8.46
2017-11-04T01:53:34.350Z,8.58
2017-11-04T01:54:34.687Z,8.63
2017-11-04T01:55:34.716Z,8.66
2017-11-04T01:56:34.402Z,8.56
2017-11-04T01:57:34.744Z,8.66
2017-11-04T01:58:35.078Z,8.67
2017-11-04T01:59:34.452Z,8.69
2017-11-04T02:00:35.114Z,8.7
2017-11-04T02:01:34.807Z,8.73
2017-11-04T02:02:34.513Z,8.76
2017-11-04T02:03:34.849Z,8.71
2017-11-04T02:04:34.865Z,8.66
2017-11-04T02:05:34.554Z,8.78
2017-11-04T02:06:35.212Z,8.67
2017-11-04T02:07:34.959Z,8.69
2017-11-04T02:08:34.603Z,8.67
2017-11-04T02:09:35.267Z,8.67
2017-11-04T02:10:35.285Z,8.67
2017-11-04T02:11:34.976Z,8.76
2017-11-04T02:12:34.673Z,8.74
2017-11-04T02:13:34.684Z,8.69
2017-11-04T02:14:35.349Z,8.64
2017-11-04T02:15:34.721Z,8.67
2017-11-04T02:16:34.737Z,8.7
2017-11-04T02:17:35.394Z,8.69
2017-11-04T02:18:35.089Z,8.64
2017-11-04T02:19:35.429Z,8.6
2017-11-04T02:20:35.441Z,8.55
2017-11-04T02:21:34.816Z,8.49
2017-11-04T02:22:35.154Z,8.42
2017-11-04T02:23:34.849Z,8.41
2017-11-04T02:24:35.190Z,8.44
2017-11-04T02:25:35.572Z,8.37
2017-11-04T02:26:35.543Z,8.38
2017-11-04T02:27:35.560Z,8.34
2017-11-04T02:28:35.578Z,8.24
2017-11-04T02:29:35.272Z,8.26
2017-11-04T02:30:34.972Z,8.24
2017-11-04T02:31:35.628Z,8.23
2017-11-04T02:32:35.324Z,8.2
2017-11-04T02:33:35.673Z,8.3
2017-11-04T02:34:35.679Z,8.28
2017-11-04T02:35:35.387Z,8.13
2017-11-04T02:36:35.414Z,8.15
2017-11-04T02:37:35.404Z,8.12
2017-11-04T02:38:35.742Z,8.18
2017-11-04T02:39:35.439Z,8.24
2017-11-04T02:40:35.455Z,8.23
2017-11-04T02:41:35.520Z,8.16
2017-11-04T02:42:35.485Z,8.27
2017-11-04T02:43:35.502Z,8.28
2017-11-04T02:44:35.527Z,8.19
2017-11-04T02:45:35.560Z,8.09
2017-11-04T02:46:35.882Z,8.13
2017-11-04T02:47:35.571Z,8.16
2017-11-04T02:48:35.913Z,8.19
2017-11-04T02:49:35.603Z,8.27
2017-11-04T02:50:35.946Z,8.31
2017-11-04T02:51:35.629Z,8.28
2017-11-04T02:52:35.654Z,8.34
2017-11-04T02:53:35.665Z,8.36
2017-11-04T02:54:35.686Z,8.49
2017-11-04T02:55:35.696Z,8.38
2017-11-04T02:56:35.767Z,8.31
2017-11-04T02:57:35.732Z,8.3
2017-11-04T02:58:35.786Z,8.28
2017-11-04T02:59:36.090Z,8.2
2017-11-04T03:00:35.789Z,8.23
2017-11-04T03:01:36.117Z,8.28
2017-11-04T03:02:35.827Z,8.3
2017-11-04T03:03:36.152Z,8.28
2017-11-04T03:04:35.525Z,8.27
2017-11-04T03:05:35.872Z,8.3
2017-11-04T03:06:35.558Z,8.13
2017-11-04T03:07:36.235Z,8.05
2017-11-04T03:08:35.591Z,8.01
2017-11-04T03:09:35.606Z,7.95
2017-11-04T03:10:36.268Z,7.8
2017-11-04T03:11:35.687Z,7.63
2017-11-04T03:12:35.978Z,7.53
2017-11-04T03:13:35.996Z,7.56
2017-11-04T03:14:35.688Z,7.24
2017-11-04T03:15:36.353Z,7.18
2017-11-04T03:16:36.384Z,6.77
2017-11-04T03:17:36.056Z,6.38
2017-11-04T03:18:36.397Z,6.12
2017-11-04T03:19:35.765Z,6.08
2017-11-04T03:20:36.106Z,6.07
2017-11-04T03:21:36.445Z,5.76
2017-11-04T03:22:36.463Z,5.89
2017-11-04T03:23:36.150Z,5.91
2017-11-04T03:24:36.173Z,5.84
2017-11-04T03:25:35.859Z,5.87
2017-11-04T03:26:36.197Z,5.91
2017-11-04T03:27:36.214Z,6.04
2017-11-04T03:28:35.956Z,6.28
2017-11-04T03:29:36.244Z,6.28
2017-11-04T03:30:36.260Z,6.31
2017-11-04T03:31:36.274Z,6.44
2017-11-04T03:32:36.289Z,6.31
2017-11-04T03:33:36.309Z,6.39
2017-11-04T03:34:36.319Z,6.46
2017-11-04T03:35:36.653Z,6.36
2017-11-04T03:36:36.677Z,6.27
2017-11-04T03:37:36.369Z,6.36
2017-11-04T03:38:36.379Z,6.45
2017-11-04T03:39:36.715Z,6.57
2017-11-04T03:40:36.409Z,6.64
2017-11-04T03:41:36.761Z,6.7
2017-11-04T03:42:36.118Z,6.85
2017-11-04T03:43:36.464Z,6.77
2017-11-04T03:44:36.469Z,6.87
2017-11-04T03:45:36.487Z,6.84
2017-11-04T03:46:36.552Z,6.87
2017-11-04T03:47:36.516Z,6.97
2017-11-04T03:48:36.858Z,6.88
2017-11-04T03:49:36.223Z,6.88
2017-11-04T03:50:36.886Z,6.85
2017-11-04T03:51:36.257Z,6.89
2017-11-04T03:52:36.601Z,7.06
2017-11-04T03:53:36.608Z,7.11
2017-11-04T03:54:36.947Z,7.21
2017-11-04T03:55:36.639Z,7.17
2017-11-04T03:56:36.988Z,7.03
2017-11-04T03:57:36.680Z,6.88
2017-11-04T03:58:37.014Z,6.78
2017-11-04T03:59:36.380Z,6.92
2017-11-04T04:00:36.395Z,6.95
2017-11-04T04:01:36.733Z,6.87
2017-11-04T04:02:37.066Z,7.07
2017-11-04T04:03:37.081Z,7.11
2017-11-04T04:04:36.455Z,7.18
2017-11-04T04:05:37.116Z,7.23
2017-11-04T04:06:36.804Z,7.35
2017-11-04T04:07:37.144Z,7.4
2017-11-04T04:08:36.842Z,7.4
2017-11-04T04:09:36.853Z,7.35
2017-11-04T04:10:36.545Z,7.4
2017-11-04T04:11:36.910Z,7.38
2017-11-04T04:12:36.949Z,7.43
2017-11-04T04:13:37.238Z,7.45
2017-11-04T04:14:37.262Z,7.48
2017-11-04T04:15:36.945Z,7.56
2017-11-04T04:16:36.964Z,7.53
2017-11-04T04:17:37.295Z,7.56
2017-11-04T04:18:37.311Z,7.53
2017-11-04T04:19:37.013Z,7.57
2017-11-04T04:20:37.343Z,7.53
2017-11-04T04:21:37.364Z,7.57
2017-11-04T04:22:37.060Z,7.67
2017-11-04T04:23:37.073Z,7.67
2017-11-04T04:24:37.406Z,7.82
2017-11-04T04:25:37.433Z,7.79
2017-11-04T04:26:37.122Z,7.75
2017-11-04T04:27:37.135Z,7.76
2017-11-04T04:28:37.473Z,7.82
2017-11-04T04:29:37.178Z,7.77
2017-11-04T04:30:37.183Z,7.75
2017-11-04T04:31:37.248Z,7.77
2017-11-04T04:32:36.893Z,7.76
2017-11-04T04:33:37.550Z,7.79
2017-11-04T04:34:37.574Z,7.77
2017-11-04T04:35:37.577Z,7.82
2017-11-04T04:36:37.620Z,7.83
2017-11-04T04:37:37.609Z,7.93
2017-11-04T04:38:37.629Z,7.85
2017-11-04T04:39:37.644Z,7.76
2017-11-04T04:40:37.019Z,7.83
2017-11-04T04:41:37.679Z,7.75
2017-11-04T04:42:37.693Z,7.8
2017-11-04T04:43:37.064Z,7.79
2017-11-04T04:44:37.727Z,7.75
2017-11-04T04:45:37.416Z,7.77
2017-11-04T04:46:37.484Z,7.77
2017-11-04T04:47:38.120Z,7.82
2017-11-04T04:48:37.464Z,7.72
2017-11-04T04:49:37.814Z,7.76
2017-11-04T04:50:37.496Z,7.85
2017-11-04T04:51:37.851Z,7.69
2017-11-04T04:52:37.856Z,7.77
2017-11-04T04:53:37.544Z,7.67
2017-11-04T04:54:37.569Z,7.6
2017-11-04T04:55:37.586Z,7.51
2017-11-04T04:56:37.914Z,7.51
2017-11-04T04:57:37.927Z,7.53
2017-11-04T04:58:37.644Z,7.57
2017-11-04T04:59:37.962Z,7.58
2017-11-04T05:00:37.655Z,7.53
2017-11-04T05:01:37.676Z,7.58
2017-11-04T05:02:37.701Z,7.63
2017-11-04T05:03:37.717Z,7.63
2017-11-04T05:04:37.717Z,7.58
2017-11-04T05:05:37.412Z,7.5
2017-11-04T05:06:37.746Z,7.51
2017-11-04T05:07:37.771Z,7.58
2017-11-04T05:08:37.779Z,7.51
2017-11-04T05:09:37.798Z,7.43
2017-11-04T05:10:38.141Z,7.5
2017-11-04T05:11:37.827Z,7.45
2017-11-04T05:12:37.846Z,7.57
2017-11-04T05:13:37.888Z,7.54
2017-11-04T05:14:37.876Z,7.72
2017-11-04T05:15:37.886Z,7.69
2017-11-04T05:16:37.910Z,7.66
2017-11-04T05:17:37.926Z,7.51
2017-11-04T05:18:38.263Z,7.53
2017-11-04T05:19:37.954Z,7.63
2017-11-04T05:20:38.441Z,7.67
2017-11-04T05:21:37.995Z,7.85
2017-11-04T05:22:38.002Z,7.72
2017-11-04T05:23:38.340Z,7.72
2017-11-04T05:24:38.359Z,7.77
2017-11-04T05:25:38.391Z,7.69
2017-11-04T05:26:38.070Z,7.67
2017-11-04T05:27:38.412Z,7.69
2017-11-04T05:28:37.773Z,7.69
2017-11-04T05:29:38.435Z,7.67
2017-11-04T05:30:38.136Z,7.69
2017-11-04T05:31:38.475Z,7.76
2017-11-04T05:32:37.837Z,7.85
2017-11-04T05:33:38.178Z,7.8
2017-11-04T05:34:38.517Z,7.83
2017-11-04T05:35:38.259Z,7.85
2017-11-04T05:36:38.223Z,7.87
2017-11-04T05:37:38.565Z,7.88
2017-11-04T05:38:38.583Z,7.88
2017-11-04T05:39:37.954Z,7.9
2017-11-04T05:40:38.291Z,7.85
2017-11-04T05:41:38.629Z,7.94
2017-11-04T05:42:38.336Z,8.01
2017-11-04T05:43:38.669Z,7.98
2017-11-04T05:44:38.034Z,8.09
2017-11-04T05:45:38.694Z,8.09
2017-11-04T05:46:38.071Z,8.03
2017-11-04T05:47:38.721Z,8.08
2017-11-04T05:48:38.739Z,8.12
2017-11-04T05:49:38.435Z,8.13
2017-11-04T05:50:38.515Z,8.16
2017-11-04T05:51:38.791Z,8.08
2017-11-04T05:52:38.825Z,8.19
2017-11-04T05:53:38.701Z,8.2
2017-11-04T05:54:38.511Z,8.31
2017-11-04T05:55:38.208Z,8.18
2017-11-04T05:56:38.223Z,8.28
2017-11-04T05:57:38.580Z,8.41
2017-11-04T05:58:38.581Z,8.38
2017-11-04T05:59:38.914Z,8.44
2017-11-04T06:00:38.291Z,8.36
2017-11-04T06:01:38.628Z,8.44
2017-11-04T06:02:38.648Z,8.46
2017-11-04T06:03:38.340Z,8.48
2017-11-04T06:04:38.677Z,8.48
2017-11-04T06:05:38.750Z,8.45
2017-11-04T06:06:39.032Z,8.37
2017-11-04T06:07:38.738Z,8.38
2017-11-04T06:08:38.745Z,8.48
2017-11-04T06:09:38.763Z,8.46
2017-11-04T06:10:39.107Z,8.48
2017-11-04T06:11:38.793Z,8.48
2017-11-04T06:12:38.816Z,8.45
2017-11-04T06:13:38.832Z,8.48
2017-11-04T06:14:38.845Z,8.49
2017-11-04T06:15:39.179Z,8.44
2017-11-04T06:16:38.553Z,8.49
2017-11-04T06:17:38.901Z,8.38
2017-11-04T06:18:39.253Z,8.49
2017-11-04T06:19:38.611Z,8.48
2017-11-04T06:20:39.265Z,8.42
2017-11-04T06:21:39.288Z,8.49
2017-11-04T06:22:39.298Z,8.45
2017-11-04T06:23:38.670Z,8.48
2017-11-04T06:24:39.008Z,8.45
2017-11-04T06:25:39.056Z,8.49
2017-11-04T06:26:39.386Z,8.49
2017-11-04T06:27:39.376Z,8.51
2017-11-04T06:28:38.779Z,8.51
2017-11-04T06:29:39.407Z,8.52
2017-11-04T06:30:39.106Z,8.56
2017-11-04T06:31:39.121Z,8.61
2017-11-04T06:32:39.142Z,8.66
2017-11-04T06:33:39.159Z,8.61
2017-11-04T06:34:39.171Z,8.51
2017-11-04T06:35:39.186Z,8.55
2017-11-04T06:36:38.882Z,8.6
2017-11-04T06:37:38.903Z,8.52
2017-11-04T06:38:39.237Z,8.52
2017-11-04T06:39:39.256Z,8.61
2017-11-04T06:40:39.282Z,8.69
2017-11-04T06:41:39.302Z,8.7
2017-11-04T06:42:39.312Z,8.67
2017-11-04T06:43:39.356Z,8.71
2017-11-04T06:44:39.333Z,8.69
2017-11-04T06:45:39.364Z,8.69
2017-11-04T06:46:39.365Z,8.69
2017-11-04T06:47:39.388Z,8.76
2017-11-04T06:48:39.396Z,8.78
2017-11-04T06:49:39.736Z,8.67
2017-11-04T06:50:39.432Z,8.73
2017-11-04T06:51:39.446Z,8.76
2017-11-04T06:52:39.471Z,8.81
2017-11-04T06:53:39.165Z,8.84
2017-11-04T06:54:39.506Z,8.79
2017-11-04T06:55:39.517Z,8.82
2017-11-04T06:56:39.542Z,8.81
2017-11-04T06:57:39.874Z,8.76
2017-11-04T06:58:39.248Z,8.84
2017-11-04T06:59:39.951Z,8.92
2017-11-04T07:00:39.602Z,8.97
2017-11-04T07:01:39.298Z,9.02
2017-11-04T07:02:39.643Z,9.02
2017-11-04T07:03:39.655Z,9.03
2017-11-04T07:04:39.361Z,9.08
2017-11-04T07:05:40.008Z,9.1
2017-11-04T07:06:39.705Z,9.06
2017-11-04T07:07:40.041Z,8.99
2017-11-04T07:08:39.731Z,8.95
2017-11-04T07:09:39.753Z,8.99
2017-11-04T07:10:39.821Z,9.03
2017-11-04T07:11:39.786Z,8.99
2017-11-04T07:12:39.801Z,9.08
2017-11-04T07:13:39.495Z,9
2017-11-04T07:14:39.838Z,9.04
2017-11-04T07:15:40.175Z,9.04
2017-11-04T07:16:39.864Z,9.06
2017-11-04T07:17:39.886Z,9.13
2017-11-04T07:18:39.920Z,9.28
2017-11-04T07:19:39.639Z,9.32
2017-11-04T07:20:40.262Z,9.31
2017-11-04T07:21:39.635Z,9.4
2017-11-04T07:22:39.972Z,9.39
2017-11-04T07:23:40.312Z,9.4
2017-11-04T07:24:40.325Z,9.37
2017-11-04T07:25:40.024Z,9.47
2017-11-04T07:26:40.037Z,9.48
2017-11-04T07:27:40.103Z,9.51
2017-11-04T07:28:40.076Z,9.48
2017-11-04T07:29:39.770Z,9.59
2017-11-04T07:30:40.113Z,9.73
2017-11-04T07:31:40.450Z,9.68
2017-11-04T07:32:39.820Z,9.82
2017-11-04T07:33:40.159Z,9.84
2017-11-04T07:34:40.175Z,9.84
2017-11-04T07:35:40.514Z,9.92
2017-11-04T07:36:39.890Z,9.89
2017-11-04T07:37:40.230Z,10.01
2017-11-04T07:38:40.247Z,10.01
2017-11-04T07:39:40.591Z,10.07
2017-11-04T07:40:40.608Z,10.17
2017-11-04T07:41:40.621Z,10.28
2017-11-04T07:42:39.994Z,10.31
2017-11-04T07:43:40.011Z,10.51
2017-11-04T07:44:40.678Z,10.6
2017-11-04T07:45:40.368Z,10.71
2017-11-04T07:46:40.758Z,10.71
2017-11-04T07:47:40.412Z,10.89
2017-11-04T07:48:40.102Z,11.02
2017-11-04T07:49:40.441Z,11.14
2017-11-04T07:50:40.471Z,11.29
2017-11-04T07:51:40.483Z,11.32
2017-11-04T07:52:40.818Z,11.4
2017-11-04T07:53:40.513Z,11.52
2017-11-04T07:54:40.534Z,11.57
2017-11-04T07:55:40.559Z,11.62
2017-11-04T07:56:40.571Z,11.59
2017-11-04T07:57:40.915Z,11.69
2017-11-04T07:58:40.291Z,11.75
2017-11-04T07:59:40.951Z,11.84
2017-11-04T08:00:40.973Z,11.86
2017-11-04T08:01:40.659Z,11.95
2017-11-04T08:02:40.360Z,12.07
2017-11-04T08:03:40.381Z,12.17
2017-11-04T08:04:40.722Z,12.25
2017-11-04T08:05:40.419Z,12.43
2017-11-04T08:06:40.760Z,12.49
2017-11-04T08:07:41.100Z,12.47
2017-11-04T08:08:40.801Z,12.46
2017-11-04T08:09:40.815Z,12.46
2017-11-04T08:10:40.846Z,12.42
2017-11-04T08:11:41.178Z,12.46
2017-11-04T08:12:40.872Z,12.61
2017-11-04T08:13:41.217Z,12.61
2017-11-04T08:14:40.924Z,12.67
2017-11-04T08:15:41.252Z,12.72
2017-11-04T08:16:41.271Z,12.62
2017-11-04T08:17:40.975Z,12.73
2017-11-04T08:18:40.988Z,12.75
2017-11-04T08:19:41.379Z,12.73
2017-11-04T08:20:41.041Z,12.79
2017-11-04T08:21:41.383Z,12.82
2017-11-04T08:22:40.747Z,12.9
2017-11-04T08:23:41.094Z,12.94
2017-11-04T08:24:41.447Z,13
2017-11-04T08:25:41.128Z,13.03
2017-11-04T08:26:41.150Z,13.09
2017-11-04T08:27:41.169Z,13.04
2017-11-04T08:28:40.869Z,13.08
2017-11-04T08:29:41.211Z,13.23
2017-11-04T08:30:40.907Z,13.25
2017-11-04T08:31:41.249Z,13.3
2017-11-04T08:32:41.269Z,13.31
2017-11-04T08:33:41.619Z,13.44
2017-11-04T08:34:41.631Z,13.42
2017-11-04T08:35:41.387Z,13.46
2017-11-04T08:36:41.674Z,13.65
2017-11-04T08:37:41.049Z,13.56
2017-11-04T08:38:41.390Z,13.67
2017-11-04T08:39:41.738Z,13.7
2017-11-04T08:40:41.446Z,13.78
2017-11-04T08:41:41.458Z,13.79
2017-11-04T08:42:41.793Z,13.67
2017-11-04T08:43:41.507Z,13.59
2017-11-04T08:44:41.192Z,13.54
2017-11-04T08:45:41.542Z,13.53
2017-11-04T08:46:41.231Z,13.56
2017-11-04T08:47:41.574Z,13.6
2017-11-04T08:48:41.593Z,13.65
2017-11-04T08:49:42.138Z,13.71
2017-11-04T08:50:41.312Z,13.71
2017-11-04T08:51:42.021Z,13.77
2017-11-04T08:52:41.672Z,13.74
2017-11-04T08:53:41.693Z,13.74
2017-11-04T08:54:41.713Z,13.78
2017-11-04T08:55:41.736Z,13.78
2017-11-04T08:56:41.757Z,13.81
2017-11-04T08:57:41.472Z,13.77
2017-11-04T08:58:42.115Z,13.86
2017-11-04T08:59:41.499Z,13.86
2017-11-04T09:00:41.840Z,13.87
2017-11-04T09:01:42.180Z,13.78
2017-11-04T09:02:41.556Z,13.9
2017-11-04T09:03:41.911Z,14.08
2017-11-04T09:04:42.240Z,13.99
2017-11-04T09:05:42.265Z,14.05
2017-11-04T09:06:41.640Z,14.14
2017-11-04T09:07:42.359Z,14.2
2017-11-04T09:08:41.683Z,14.22
2017-11-04T09:09:42.025Z,14.2
2017-11-04T09:10:42.368Z,14.33
2017-11-04T09:11:41.742Z,14.28
2017-11-04T09:12:42.086Z,14.18
2017-11-04T09:13:41.786Z,14.15
2017-11-04T09:14:42.130Z,14.3
2017-11-04T09:15:42.155Z,14.3
2017-11-04T09:16:41.846Z,14.4
2017-11-04T09:17:41.865Z,14.58
2017-11-04T09:18:42.211Z,14.53
2017-11-04T09:19:42.230Z,14.5
2017-11-04T09:20:42.571Z,14.65
2017-11-04T09:21:41.953Z,14.69
2017-11-04T09:22:41.972Z,14.69
2017-11-04T09:23:42.644Z,14.73
2017-11-04T09:24:42.349Z,14.78
2017-11-04T09:25:42.356Z,14.79
2017-11-04T09:26:42.437Z,14.6
2017-11-04T09:27:42.082Z,14.73
2017-11-04T09:28:42.431Z,14.77
2017-11-04T09:29:42.454Z,14.84
2017-11-04T09:30:42.784Z,14.89
2017-11-04T09:31:42.811Z,14.96
2017-11-04T09:32:42.827Z,14.78
2017-11-04T09:33:42.526Z,14.81
2017-11-04T09:34:42.873Z,14.86
2017-11-04T09:35:42.572Z,14.85
2017-11-04T09:36:42.912Z,14.91
2017-11-04T09:37:42.614Z,15
2017-11-04T09:38:42.951Z,15.15
2017-11-04T09:39:42.333Z,15.19
2017-11-04T09:40:42.354Z,15.25
2017-11-04T09:42:43.031Z,15.49
2017-11-04T09:43:42.421Z,15.55
2017-11-04T09:44:42.764Z,15.68
2017-11-04T09:45:43.113Z,15.7
2017-11-04T09:46:43.145Z,15.7
2017-11-04T09:47:42.826Z,15.79
2017-11-04T09:48:42.528Z,15.86
2017-11-04T09:49:43.189Z,15.97
2017-11-04T09:50:42.887Z,16.02
2017-11-04T09:51:42.597Z,15.98
2017-11-04T09:52:42.943Z,15.91
2017-11-04T09:53:43.287Z,15.73
2017-11-04T09:54:43.320Z,15.72
2017-11-04T09:55:43.010Z,15.68
2017-11-04T09:56:43.026Z,15.73
2017-11-04T09:57:43.367Z,16
2017-11-04T09:58:43.069Z,16.1
2017-11-04T09:59:42.780Z,16.31
2017-11-04T10:00:43.449Z,16.43
2017-11-04T10:01:43.133Z,16.36
2017-11-04T10:02:43.155Z,16.49
2017-11-04T10:03:43.527Z,16.39
2017-11-04T10:04:43.211Z,16.41
2017-11-04T10:05:43.224Z,16.29
2017-11-04T10:06:43.303Z,16.36
2017-11-04T10:07:43.596Z,16.38
2017-11-04T10:08:43.300Z,16.42
2017-11-04T10:09:43.318Z,16.51
2017-11-04T10:10:43.342Z,16.39
2017-11-04T10:11:43.686Z,16.47
2017-11-04T10:12:43.383Z,16.53
2017-11-04T10:13:43.412Z,16.61
2017-11-04T10:14:43.756Z,16.72
2017-11-04T10:15:43.135Z,16.64
2017-11-04T10:16:43.477Z,16.56
2017-11-04T10:17:43.503Z,16.69
2017-11-04T10:18:43.208Z,16.65
2017-11-04T10:19:43.554Z,16.83
2017-11-04T10:20:43.901Z,16.79
2017-11-04T10:21:43.597Z,16.75
2017-11-04T10:22:43.622Z,16.9
2017-11-04T10:23:43.646Z,16.96
2017-11-04T10:24:43.669Z,17.01
2017-11-04T10:25:43.373Z,17.11
2017-11-04T10:26:43.718Z,17.11
2017-11-04T10:27:44.080Z,17.29
2017-11-04T10:28:43.767Z,17.34
2017-11-04T10:29:43.786Z,17.39
2017-11-04T10:30:43.815Z,17.49
2017-11-04T10:31:43.836Z,17.72
2017-11-04T10:32:44.191Z,17.8
2017-11-04T10:33:43.886Z,18.05
2017-11-04T10:34:43.590Z,18.37
2017-11-04T10:35:43.617Z,18.58
2017-11-04T10:36:43.980Z,18.62
2017-11-04T10:37:44.011Z,18.55
2017-11-04T10:38:44.332Z,18.86
2017-11-04T10:39:44.045Z,18.66
2017-11-04T10:40:44.445Z,18.78
2017-11-04T10:41:44.091Z,18.99
2017-11-04T10:42:44.120Z,19.26
2017-11-04T10:43:44.469Z,19.54
2017-11-04T10:44:44.504Z,19.55
2017-11-04T10:45:43.875Z,19.76
2017-11-04T10:46:44.220Z,19.81
2017-11-04T10:47:44.573Z,19.86
2017-11-04T10:48:44.596Z,19.84
2017-11-04T10:49:44.624Z,19.94
2017-11-04T10:50:44.003Z,19.73
2017-11-04T10:51:44.689Z,19.77
2017-11-04T10:52:44.061Z,19.74
2017-11-04T10:53:44.412Z,19.77
2017-11-04T10:54:44.757Z,19.79
2017-11-04T10:55:44.139Z,19.52
2017-11-04T10:56:44.540Z,19.55
2017-11-04T10:57:44.835Z,19.59
2017-11-04T10:58:44.540Z,19.62
2017-11-04T10:59:44.585Z,19.55
2017-11-04T11:00:44.591Z,19.74
2017-11-04T11:01:44.938Z,20
2017-11-04T11:02:44.649Z,20.07
2017-11-04T11:03:44.349Z,20.34
2017-11-04T11:04:45.025Z,20.37
2017-11-04T11:05:45.050Z,20.7
2017-11-04T11:06:45.070Z,20.78
2017-11-04T11:07:45.100Z,20.92
2017-11-04T11:08:44.807Z,21.03
2017-11-04T11:09:44.832Z,21.14
2017-11-04T11:10:45.184Z,21.15
2017-11-04T11:11:45.206Z,21.15
2017-11-04T11:12:44.594Z,21
2017-11-04T11:13:45.261Z,20.96
2017-11-04T11:14:45.293Z,21.03
2017-11-04T11:15:44.680Z,21.17
2017-11-04T11:16:44.705Z,21.35
2017-11-04T11:17:45.376Z,21.46
2017-11-04T11:18:45.403Z,21.36
2017-11-04T11:19:45.429Z,21.21
2017-11-04T11:20:45.460Z,21.52
2017-11-04T11:21:45.491Z,21.57
2017-11-04T11:22:44.870Z,21.75
2017-11-04T11:23:44.900Z,21.72
2017-11-04T11:24:45.261Z,21.8
2017-11-04T11:25:45.274Z,21.82
2017-11-04T11:26:44.984Z,21.76
2017-11-04T11:27:45.384Z,21.96
2017-11-04T11:28:45.682Z,22.1
2017-11-04T11:29:45.715Z,22.3
2017-11-04T11:30:45.734Z,22.33
2017-11-04T11:31:45.469Z,22.39
2017-11-04T11:32:45.469Z,22.44
2017-11-04T11:33:45.816Z,22.48
2017-11-04T11:34:45.526Z,22.75
2017-11-04T11:35:45.229Z,22.81
2017-11-04T11:36:45.257Z,23.03
2017-11-04T11:37:45.350Z,22.84
2017-11-04T11:38:45.316Z,22.73
2017-11-04T11:39:46.003Z,22.88
2017-11-04T11:40:45.692Z,22.85
2017-11-04T11:41:46.041Z,22.65
2017-11-04T11:42:46.071Z,22.65
2017-11-04T11:43:46.092Z,22.63
2017-11-04T11:44:45.853Z,22.68
2017-11-04T11:45:46.152Z,22.68
2017-11-04T11:46:45.860Z,22.7
2017-11-04T11:47:45.898Z,22.9
2017-11-04T11:48:46.240Z,22.98
2017-11-04T11:49:45.938Z,23.06
2017-11-04T11:50:45.972Z,23.08
2017-11-04T11:51:46.000Z,23.24
2017-11-04T11:52:46.023Z,23.31
2017-11-04T11:53:46.058Z,23.34
2017-11-04T11:54:46.085Z,23.54
2017-11-04T11:55:45.795Z,23.58
2017-11-04T11:56:46.454Z,23.76
2017-11-04T11:57:46.043Z,23.56
2017-11-04T11:58:46.189Z,23.74
2017-11-04T11:59:46.538Z,23.81
2017-11-04T12:00:46.572Z,23.87
2017-11-04T12:01:46.280Z,24.02
2017-11-04T12:02:46.628Z,24.03
2017-11-04T12:03:46.022Z,24.02
2017-11-04T12:04:46.689Z,24.29
2017-11-04T12:05:46.400Z,24.43
2017-11-04T12:06:46.097Z,24.8
2017-11-04T12:07:46.122Z,24.92
2017-11-04T12:08:46.795Z,25.11
2017-11-04T12:09:46.828Z,25.41
2017-11-04T12:10:46.964Z,25.7
2017-11-04T12:11:46.887Z,26.02
2017-11-04T12:12:46.922Z,26.33
2017-11-04T12:13:46.304Z,26.63
2017-11-04T12:14:46.659Z,27.02
2017-11-04T12:15:47.010Z,27.03
2017-11-04T12:16:46.726Z,26.52
2017-11-04T12:17:46.772Z,26.73
2017-11-04T12:18:46.832Z,26.66
2017-11-04T12:19:46.814Z,26.88
2017-11-04T12:20:46.862Z,27.05
2017-11-04T12:21:46.722Z,26.45
2017-11-04T12:22:47.059Z,26.51
2017-11-04T12:23:47.067Z,26.38
2017-11-04T12:24:47.426Z,25.93
2017-11-04T12:25:47.095Z,25.69
2017-11-04T12:26:47.035Z,25.59
2017-11-04T12:27:47.388Z,25.31
2017-11-04T12:28:46.777Z,25.38
2017-11-04T12:29:47.128Z,25.78
2017-11-04T12:30:47.164Z,25.81
2017-11-04T12:31:47.519Z,25.85
2017-11-04T12:32:47.551Z,25.85
2017-11-04T12:33:47.594Z,26.41
2017-11-04T12:34:47.820Z,26.56
2017-11-04T12:35:47.324Z,26.44
2017-11-04T12:36:47.685Z,26.06
2017-11-04T12:37:47.709Z,25.98
2017-11-04T12:38:47.423Z,25.9
2017-11-04T12:39:47.461Z,25.84
2017-11-04T12:40:47.162Z,26.23
2017-11-04T12:41:47.514Z,26.55
2017-11-04T12:42:47.225Z,26.71
2017-11-04T12:43:47.902Z,26.81
2017-11-04T12:44:47.291Z,26.59
2017-11-04T12:45:47.966Z,26.93
2017-11-04T12:46:47.673Z,26.9
2017-11-04T12:47:47.389Z,26.6
2017-11-04T12:48:47.745Z,26.21
2017-11-04T12:49:47.449Z,26.44
2017-11-04T12:50:48.174Z,26.1
2017-11-04T12:51:47.840Z,25.65
2017-11-04T12:52:48.399Z,25.43
2017-11-04T12:53:47.580Z,25.23
2017-11-04T12:54:47.942Z,25.43
2017-11-04T12:55:47.971Z,25.7
2017-11-04T12:56:48.002Z,25.88
2017-11-04T12:57:48.047Z,26.02
2017-11-04T12:58:48.055Z,25.7
2017-11-04T12:59:48.112Z,25.11
2017-11-04T13:00:47.789Z,24.65
2017-11-04T13:01:48.146Z,24.21
2017-11-04T13:02:48.178Z,24.16
2017-11-04T13:03:48.201Z,23.98
2017-11-04T13:04:48.559Z,23.54
2017-11-04T13:05:48.588Z,23.87
2017-11-04T13:06:48.344Z,24.61
2017-11-04T13:07:48.322Z,25.21
2017-11-04T13:08:48.030Z,25.73
2017-11-04T13:09:48.405Z,26.15
2017-11-04T13:10:48.741Z,26.36
2017-11-04T13:11:48.440Z,26.81